createdAt,value
2016-07-26T00:00:20.727Z,1013.37
2016-07-26T00:01:20.707Z,1013.32
2016-07-26T00:02:20.698Z,1013.32
2016-07-26T00:03:20.690Z,1013.31
2016-07-26T00:04:20.675Z,1013.31
2016-07-26T00:05:20.666Z,1013.32
2016-07-26T00:06:20.660Z,1013.35
2016-07-26T00:07:20.647Z,1013.35
2016-07-26T00:08:20.637Z,1013.36
2016-07-26T00:09:20.627Z,1013.34
2016-07-26T00:10:20.619Z,1013.33
2016-07-26T00:11:20.606Z,1013.33
2016-07-26T00:12:20.595Z,1013.31
2016-07-26T00:13:20.589Z,1013.33
2016-07-26T00:14:20.580Z,1013.35
2016-07-26T00:15:20.619Z,1013.38
2016-07-26T00:16:20.559Z,1013.38
2016-07-26T00:17:20.549Z,1013.38
2016-07-26T00:18:20.535Z,1013.41
2016-07-26T00:19:20.528Z,1013.38
2016-07-26T00:20:20.518Z,1013.4
2016-07-26T00:21:20.504Z,1013.38
2016-07-26T00:22:20.499Z,1013.39
2016-07-26T00:23:20.488Z,1013.39
2016-07-26T00:24:20.471Z,1013.39
2016-07-26T00:25:20.466Z,1013.38
2016-07-26T00:26:20.455Z,1013.37
2016-07-26T00:27:20.441Z,1013.39
2016-07-26T00:28:20.432Z,1013.4
2016-07-26T00:29:20.429Z,1013.41
2016-07-26T00:30:20.418Z,1013.42
2016-07-26T00:31:20.404Z,1013.42
2016-07-26T00:32:20.402Z,1013.45
2016-07-26T00:33:20.389Z,1013.45
2016-07-26T00:34:20.375Z,1013.46
2016-07-26T00:35:20.367Z,1013.4
2016-07-26T00:36:20.353Z,1013.45
2016-07-26T00:37:20.348Z,1013.42
2016-07-26T00:38:20.336Z,1013.41
2016-07-26T00:39:20.330Z,1013.42
2016-07-26T00:40:20.310Z,1013.42
2016-07-26T00:41:20.312Z,1013.38
2016-07-26T00:42:20.295Z,1013.38
2016-07-26T00:43:20.278Z,1013.4
2016-07-26T00:44:20.273Z,1013.39
2016-07-26T00:45:20.268Z,1013.42
2016-07-26T00:46:20.257Z,1013.44
2016-07-26T00:47:20.249Z,1013.48
2016-07-26T00:48:20.227Z,1013.47
2016-07-26T00:49:20.231Z,1013.47
2016-07-26T00:50:20.214Z,1013.44
2016-07-26T00:51:20.213Z,1013.41
2016-07-26T00:52:20.189Z,1013.41
2016-07-26T00:53:20.180Z,1013.42
2016-07-26T00:54:20.179Z,1013.41
2016-07-26T00:55:20.157Z,1013.42
2016-07-26T00:56:20.147Z,1013.41
2016-07-26T00:57:20.150Z,1013.39
2016-07-26T00:58:20.131Z,1013.38
2016-07-26T00:59:20.120Z,1013.39
2016-07-26T01:00:20.109Z,1013.44
2016-07-26T01:01:20.100Z,1013.51
2016-07-26T01:02:20.090Z,1013.53
2016-07-26T01:03:20.080Z,1013.54
2016-07-26T01:04:20.067Z,1013.53
2016-07-26T01:05:20.056Z,1013.56
2016-07-26T01:06:20.047Z,1013.57
2016-07-26T01:07:20.040Z,1013.52
2016-07-26T01:08:20.040Z,1013.49
2016-07-26T01:09:20.018Z,1013.5
2016-07-26T01:10:20.003Z,1013.51
2016-07-26T01:11:19.999Z,1013.49
2016-07-26T01:12:19.989Z,1013.49
2016-07-26T01:13:19.979Z,1013.41
2016-07-26T01:14:19.969Z,1013.38
2016-07-26T01:15:19.957Z,1013.36
2016-07-26T01:16:19.950Z,1013.31
2016-07-26T01:17:19.937Z,1013.3
2016-07-26T01:18:19.927Z,1013.36
2016-07-26T01:19:19.920Z,1013.36
2016-07-26T01:20:19.906Z,1013.31
2016-07-26T01:21:19.899Z,1013.32
2016-07-26T01:22:19.886Z,1013.3
2016-07-26T01:23:19.872Z,1013.26
2016-07-26T01:24:19.866Z,1013.25
2016-07-26T01:25:19.856Z,1013.21
2016-07-26T01:26:19.844Z,1013.26
2016-07-26T01:27:19.843Z,1013.25
2016-07-26T01:28:19.821Z,1013.28
2016-07-26T01:29:19.812Z,1013.25
2016-07-26T01:30:19.801Z,1013.26
2016-07-26T01:31:19.794Z,1013.24
2016-07-26T01:32:19.779Z,1013.25
2016-07-26T01:33:19.766Z,1013.23
2016-07-26T01:34:19.800Z,1013.25
2016-07-26T01:35:19.748Z,1013.24
2016-07-26T01:36:19.742Z,1013.27
2016-07-26T01:37:19.729Z,1013.3
2016-07-26T01:38:19.719Z,1013.27
2016-07-26T01:39:19.709Z,1013.34
2016-07-26T01:40:19.698Z,1013.33
2016-07-26T01:41:19.687Z,1013.34
2016-07-26T01:42:19.679Z,1013.34
2016-07-26T01:43:19.664Z,1013.36
2016-07-26T01:44:19.656Z,1013.34
2016-07-26T01:45:19.646Z,1013.32
2016-07-26T01:46:19.635Z,1013.33
2016-07-26T01:47:19.628Z,1013.37
2016-07-26T01:48:19.619Z,1013.33
2016-07-26T01:49:19.607Z,1013.31
2016-07-26T01:50:19.593Z,1013.31
2016-07-26T01:51:19.579Z,1013.31
2016-07-26T01:52:19.571Z,1013.29
2016-07-26T01:53:19.560Z,1013.24
2016-07-26T01:54:19.547Z,1013.23
2016-07-26T01:55:19.540Z,1013.22
2016-07-26T01:56:19.530Z,1013.23
2016-07-26T01:57:19.517Z,1013.22
2016-07-26T01:58:19.508Z,1013.24
2016-07-26T01:59:19.501Z,1013.24
2016-07-26T02:00:19.493Z,1013.24
2016-07-26T02:01:19.487Z,1013.28
2016-07-26T02:02:19.469Z,1013.25
2016-07-26T02:03:19.458Z,1013.27
2016-07-26T02:04:19.443Z,1013.29
2016-07-26T02:05:19.483Z,1013.27
2016-07-26T02:06:19.430Z,1013.29
2016-07-26T02:07:19.419Z,1013.28
2016-07-26T02:08:19.401Z,1013.28
2016-07-26T02:09:19.430Z,1013.29
2016-07-26T02:10:19.379Z,1013.26
2016-07-26T02:11:19.369Z,1013.28
2016-07-26T02:12:19.357Z,1013.31
2016-07-26T02:13:19.397Z,1013.28
2016-07-26T02:14:19.337Z,1013.28
2016-07-26T02:15:19.328Z,1013.27
2016-07-26T02:16:19.315Z,1013.29
2016-07-26T02:17:19.311Z,1013.26
2016-07-26T02:18:19.300Z,1013.29
2016-07-26T02:19:19.287Z,1013.32
2016-07-26T02:20:19.271Z,1013.33
2016-07-26T02:21:19.266Z,1013.31
2016-07-26T02:22:19.257Z,1013.33
2016-07-26T02:23:19.240Z,1013.35
2016-07-26T02:24:19.231Z,1013.32
2016-07-26T02:25:19.221Z,1013.35
2016-07-26T02:26:19.211Z,1013.36
2016-07-26T02:27:19.199Z,1013.4
2016-07-26T02:28:19.191Z,1013.42
2016-07-26T02:29:19.180Z,1013.4
2016-07-26T02:30:19.166Z,1013.37
2016-07-26T02:31:19.162Z,1013.37
2016-07-26T02:32:19.145Z,1013.31
2016-07-26T02:33:19.138Z,1013.34
2016-07-26T02:34:19.122Z,1013.33
2016-07-26T02:35:19.109Z,1013.3
2016-07-26T02:36:19.100Z,1013.31
2016-07-26T02:37:19.093Z,1013.28
2016-07-26T02:38:19.083Z,1013.28
2016-07-26T02:39:19.070Z,1013.28
2016-07-26T02:40:19.060Z,1013.3
2016-07-26T02:41:19.053Z,1013.31
2016-07-26T02:42:19.038Z,1013.27
2016-07-26T02:43:19.032Z,1013.3
2016-07-26T02:44:19.021Z,1013.33
2016-07-26T02:45:19.002Z,1013.33
2016-07-26T02:46:18.993Z,1013.31
2016-07-26T02:47:18.987Z,1013.3
2016-07-26T02:48:18.971Z,1013.3
2016-07-26T02:49:18.960Z,1013.28
2016-07-26T02:50:18.953Z,1013.25
2016-07-26T02:51:18.942Z,1013.25
2016-07-26T02:52:18.926Z,1013.3
2016-07-26T02:53:18.919Z,1013.28
2016-07-26T02:54:18.906Z,1013.28
2016-07-26T02:55:18.897Z,1013.3
2016-07-26T02:56:18.883Z,1013.32
2016-07-26T02:57:18.872Z,1013.37
2016-07-26T02:58:18.866Z,1013.41
2016-07-26T02:59:18.849Z,1013.43
2016-07-26T03:00:18.850Z,1013.44
2016-07-26T03:01:18.831Z,1013.43
2016-07-26T03:02:18.821Z,1013.45
2016-07-26T03:03:18.810Z,1013.41
2016-07-26T03:05:18.789Z,1013.43
2016-07-26T03:06:18.781Z,1013.41
2016-07-26T03:07:18.767Z,1013.4
2016-07-26T03:08:18.759Z,1013.41
2016-07-26T03:09:18.742Z,1013.46
2016-07-26T03:10:18.736Z,1013.44
2016-07-26T03:11:18.728Z,1013.46
2016-07-26T03:12:18.711Z,1013.49
2016-07-26T03:13:18.693Z,1013.47
2016-07-26T03:14:18.684Z,1013.48
2016-07-26T03:15:18.673Z,1013.53
2016-07-26T03:16:18.668Z,1013.48
2016-07-26T03:17:18.652Z,1013.49
2016-07-26T03:18:18.639Z,1013.48
2016-07-26T03:20:18.624Z,1013.49
2016-07-26T03:21:18.604Z,1013.5
2016-07-26T03:22:18.603Z,1013.48
2016-07-26T03:23:18.600Z,1013.5
2016-07-26T03:24:18.578Z,1013.51
2016-07-26T03:25:18.559Z,1013.49
2016-07-26T03:26:18.550Z,1013.51
2016-07-26T03:27:18.541Z,1013.47
2016-07-26T03:28:18.532Z,1013.52
2016-07-26T03:29:18.517Z,1013.51
2016-07-26T03:30:18.509Z,1013.51
2016-07-26T03:31:18.503Z,1013.53
2016-07-26T03:32:18.489Z,1013.53
2016-07-26T03:33:18.478Z,1013.51
2016-07-26T03:35:18.452Z,1013.57
2016-07-26T03:36:18.440Z,1013.58
2016-07-26T03:37:18.437Z,1013.62
2016-07-26T03:38:18.417Z,1013.64
2016-07-26T03:39:18.408Z,1013.64
2016-07-26T03:40:18.395Z,1013.62
2016-07-26T03:41:18.385Z,1013.62
2016-07-26T03:42:18.372Z,1013.59
2016-07-26T03:43:18.361Z,1013.63
2016-07-26T03:44:18.363Z,1013.6
2016-07-26T03:45:18.343Z,1013.62
2016-07-26T03:46:18.334Z,1013.6
2016-07-26T03:47:18.319Z,1013.62
2016-07-26T03:48:18.311Z,1013.62
2016-07-26T03:50:18.287Z,1013.62
2016-07-26T03:51:18.283Z,1013.67
2016-07-26T03:52:18.260Z,1013.65
2016-07-26T03:53:18.251Z,1013.66
2016-07-26T03:54:18.240Z,1013.66
2016-07-26T03:55:18.227Z,1013.7
2016-07-26T03:56:18.222Z,1013.69
2016-07-26T03:57:18.212Z,1013.7
2016-07-26T03:58:18.198Z,1013.71
2016-07-26T03:59:18.183Z,1013.69
2016-07-26T04:00:18.170Z,1013.63
2016-07-26T04:01:18.163Z,1013.68
2016-07-26T04:02:18.153Z,1013.66
2016-07-26T04:03:18.143Z,1013.68
2016-07-26T04:05:18.114Z,1013.69
2016-07-26T04:06:18.108Z,1013.69
2016-07-26T04:07:18.098Z,1013.66
2016-07-26T04:08:18.084Z,1013.66
2016-07-26T04:09:18.073Z,1013.68
2016-07-26T04:10:18.065Z,1013.67
2016-07-26T04:11:18.052Z,1013.65
2016-07-26T04:12:18.038Z,1013.65
2016-07-26T04:13:18.033Z,1013.68
2016-07-26T04:14:18.013Z,1013.65
2016-07-26T04:15:18.003Z,1013.68
2016-07-26T04:16:17.989Z,1013.67
2016-07-26T04:17:17.980Z,1013.67
2016-07-26T04:18:17.973Z,1013.67
2016-07-26T04:19:17.955Z,1013.65
2016-07-26T04:20:17.945Z,1013.69
2016-07-26T04:21:17.933Z,1013.68
2016-07-26T04:22:17.923Z,1013.72
2016-07-26T04:23:17.918Z,1013.71
2016-07-26T04:24:17.903Z,1013.72
2016-07-26T04:25:17.892Z,1013.72
2016-07-26T04:26:17.881Z,1013.72
2016-07-26T04:27:17.862Z,1013.65
2016-07-26T04:28:17.853Z,1013.71
2016-07-26T04:29:17.843Z,1013.66
2016-07-26T04:30:17.833Z,1013.63
2016-07-26T04:31:17.817Z,1013.64
2016-07-26T04:32:17.815Z,1013.64
2016-07-26T04:33:17.802Z,1013.68
2016-07-26T04:35:17.772Z,1013.64
2016-07-26T04:36:17.761Z,1013.64
2016-07-26T04:37:17.752Z,1013.65
2016-07-26T04:38:17.739Z,1013.62
2016-07-26T04:39:17.729Z,1013.61
2016-07-26T04:40:17.722Z,1013.64
2016-07-26T04:41:17.703Z,1013.62
2016-07-26T04:42:17.693Z,1013.62
2016-07-26T04:43:17.679Z,1013.63
2016-07-26T04:44:17.670Z,1013.67
2016-07-26T04:45:17.664Z,1013.67
2016-07-26T04:46:17.643Z,1013.72
2016-07-26T04:47:17.644Z,1013.73
2016-07-26T04:48:17.622Z,1013.73
2016-07-26T04:50:17.603Z,1013.76
2016-07-26T04:51:17.592Z,1013.74
2016-07-26T04:52:17.582Z,1013.76
2016-07-26T04:53:17.575Z,1013.78
2016-07-26T04:54:17.556Z,1013.73
2016-07-26T04:55:17.545Z,1013.76
2016-07-26T04:56:17.532Z,1013.78
2016-07-26T04:57:17.523Z,1013.78
2016-07-26T04:58:17.512Z,1013.8
2016-07-26T04:59:17.502Z,1013.81
2016-07-26T05:00:17.510Z,1013.81
2016-07-26T05:01:17.476Z,1013.86
2016-07-26T05:02:17.473Z,1013.84
2016-07-26T05:03:17.452Z,1013.86
2016-07-26T05:05:17.431Z,1013.89
2016-07-26T05:06:17.424Z,1013.9
2016-07-26T05:07:17.411Z,1013.9
2016-07-26T05:08:17.390Z,1013.92
2016-07-26T05:09:17.381Z,1013.88
2016-07-26T05:10:17.386Z,1013.91
2016-07-26T05:11:17.359Z,1013.9
2016-07-26T05:12:17.401Z,1013.9
2016-07-26T05:13:17.338Z,1013.86
2016-07-26T05:14:17.331Z,1013.88
2016-07-26T05:15:17.325Z,1013.89
2016-07-26T05:16:17.311Z,1013.85
2016-07-26T05:17:17.292Z,1013.86
2016-07-26T05:18:17.283Z,1013.84
2016-07-26T05:20:17.262Z,1013.86
2016-07-26T05:21:17.251Z,1013.94
2016-07-26T05:22:17.237Z,1013.92
2016-07-26T05:23:17.230Z,1013.96
2016-07-26T05:24:17.215Z,1013.98
2016-07-26T05:25:17.207Z,1014
2016-07-26T05:26:17.200Z,1014.02
2016-07-26T05:27:17.191Z,1014.02
2016-07-26T05:28:17.176Z,1014.03
2016-07-26T05:29:17.159Z,1014.03
2016-07-26T05:30:17.152Z,1014.05
2016-07-26T05:31:17.142Z,1014.04
2016-07-26T05:32:17.131Z,1014.03
2016-07-26T05:33:17.121Z,1014.04
2016-07-26T05:34:17.106Z,1014.06
2016-07-26T05:35:17.104Z,1014.06
2016-07-26T05:36:17.085Z,1014.05
2016-07-26T05:37:17.071Z,1014.1
2016-07-26T05:38:17.073Z,1014.08
2016-07-26T05:39:17.051Z,1014.1
2016-07-26T05:40:17.038Z,1014.13
2016-07-26T05:41:17.032Z,1014.13
2016-07-26T05:42:17.022Z,1014.12
2016-07-26T05:43:17.009Z,1014.14
2016-07-26T05:44:16.999Z,1014.13
2016-07-26T05:45:16.990Z,1014.15
2016-07-26T05:46:16.980Z,1014.16
2016-07-26T05:47:16.962Z,1014.16
2016-07-26T05:48:16.949Z,1014.19
2016-07-26T05:49:16.941Z,1014.18
2016-07-26T05:50:16.931Z,1014.15
2016-07-26T05:51:16.918Z,1014.14
2016-07-26T05:52:16.911Z,1014.15
2016-07-26T05:53:16.901Z,1014.12
2016-07-26T05:54:16.884Z,1014.12
2016-07-26T05:55:16.878Z,1014.13
2016-07-26T05:56:16.865Z,1014.16
2016-07-26T05:57:16.855Z,1014.19
2016-07-26T05:58:16.853Z,1014.19
2016-07-26T05:59:16.841Z,1014.23
2016-07-26T06:00:16.821Z,1014.22
2016-07-26T06:01:16.851Z,1014.22
2016-07-26T06:02:16.800Z,1014.21
2016-07-26T06:03:16.839Z,1014.25
2016-07-26T06:04:16.776Z,1014.25
2016-07-26T06:05:16.770Z,1014.24
2016-07-26T06:06:16.757Z,1014.27
2016-07-26T06:07:16.794Z,1014.28
2016-07-26T06:08:16.737Z,1014.27
2016-07-26T06:09:16.731Z,1014.33
2016-07-26T06:10:16.714Z,1014.3
2016-07-26T06:11:16.699Z,1014.29
2016-07-26T06:12:16.689Z,1014.23
2016-07-26T06:13:16.681Z,1014.25
2016-07-26T06:14:16.670Z,1014.25
2016-07-26T06:15:16.666Z,1014.26
2016-07-26T06:16:16.652Z,1014.24
2016-07-26T06:17:16.646Z,1014.31
2016-07-26T06:18:16.633Z,1014.31
2016-07-26T06:19:16.618Z,1014.35
2016-07-26T06:20:16.606Z,1014.32
2016-07-26T06:21:16.594Z,1014.31
2016-07-26T06:22:16.584Z,1014.3
2016-07-26T06:23:16.573Z,1014.28
2016-07-26T06:24:16.561Z,1014.28
2016-07-26T06:25:16.561Z,1014.3
2016-07-26T06:26:16.542Z,1014.29
2016-07-26T06:27:16.532Z,1014.27
2016-07-26T06:28:16.520Z,1014.29
2016-07-26T06:29:16.519Z,1014.29
2016-07-26T06:30:16.501Z,1014.27
2016-07-26T06:31:16.490Z,1014.25
2016-07-26T06:32:16.478Z,1014.23
2016-07-26T06:33:16.473Z,1014.23
2016-07-26T06:34:16.459Z,1014.19
2016-07-26T06:35:16.449Z,1014.2
2016-07-26T06:36:16.438Z,1014.17
2016-07-26T06:37:16.429Z,1014.19
2016-07-26T06:38:16.420Z,1014.21
2016-07-26T06:39:16.410Z,1014.24
2016-07-26T06:40:16.399Z,1014.26
2016-07-26T06:41:16.389Z,1014.27
2016-07-26T06:42:16.380Z,1014.29
2016-07-26T06:43:16.369Z,1014.35
2016-07-26T06:44:16.361Z,1014.38
2016-07-26T06:45:16.349Z,1014.34
2016-07-26T06:46:16.341Z,1014.33
2016-07-26T06:47:16.330Z,1014.32
2016-07-26T06:48:16.322Z,1014.34
2016-07-26T06:49:16.317Z,1014.33
2016-07-26T06:50:16.302Z,1014.35
2016-07-26T06:51:16.294Z,1014.33
2016-07-26T06:52:16.281Z,1014.34
2016-07-26T06:53:16.271Z,1014.36
2016-07-26T06:54:16.262Z,1014.35
2016-07-26T06:55:16.253Z,1014.4
2016-07-26T06:56:16.244Z,1014.37
2016-07-26T06:57:16.239Z,1014.39
2016-07-26T06:58:16.231Z,1014.43
2016-07-26T06:59:16.213Z,1014.45
2016-07-26T07:00:16.203Z,1014.51
2016-07-26T07:01:16.200Z,1014.52
2016-07-26T07:02:16.186Z,1014.55
2016-07-26T07:03:16.178Z,1014.51
2016-07-26T07:04:16.169Z,1014.53
2016-07-26T07:05:16.155Z,1014.52
2016-07-26T07:06:16.144Z,1014.52
2016-07-26T07:07:16.140Z,1014.56
2016-07-26T07:08:16.130Z,1014.55
2016-07-26T07:09:16.124Z,1014.55
2016-07-26T07:10:16.112Z,1014.55
2016-07-26T07:11:16.100Z,1014.54
2016-07-26T07:12:16.092Z,1014.55
2016-07-26T07:13:16.084Z,1014.56
2016-07-26T07:14:16.076Z,1014.59
2016-07-26T07:15:16.072Z,1014.6
2016-07-26T07:16:16.061Z,1014.6
2016-07-26T07:17:16.046Z,1014.63
2016-07-26T07:18:16.035Z,1014.63
2016-07-26T07:19:16.030Z,1014.6
2016-07-26T07:20:16.021Z,1014.57
2016-07-26T07:21:16.009Z,1014.59
2016-07-26T07:22:16.001Z,1014.62
2016-07-26T07:23:15.989Z,1014.6
2016-07-26T07:24:15.991Z,1014.57
2016-07-26T07:25:15.976Z,1014.57
2016-07-26T07:26:15.967Z,1014.55
2016-07-26T07:27:15.958Z,1014.59
2016-07-26T07:28:15.950Z,1014.6
2016-07-26T07:29:15.941Z,1014.59
2016-07-26T07:30:15.931Z,1014.6
2016-07-26T07:31:15.920Z,1014.62
2016-07-26T07:32:15.914Z,1014.64
2016-07-26T07:33:15.906Z,1014.59
2016-07-26T07:34:15.896Z,1014.57
2016-07-26T07:35:15.890Z,1014.55
2016-07-26T07:36:15.882Z,1014.52
2016-07-26T07:37:15.872Z,1014.48
2016-07-26T07:38:15.867Z,1014.46
2016-07-26T07:39:15.860Z,1014.46
2016-07-26T07:40:15.851Z,1014.46
2016-07-26T07:41:15.840Z,1014.45
2016-07-26T07:42:15.831Z,1014.46
2016-07-26T07:43:15.826Z,1014.48
2016-07-26T07:44:15.814Z,1014.53
2016-07-26T07:45:15.805Z,1014.49
2016-07-26T07:46:15.796Z,1014.52
2016-07-26T07:47:15.791Z,1014.54
2016-07-26T07:48:15.780Z,1014.59
2016-07-26T07:49:15.773Z,1014.55
2016-07-26T07:50:15.766Z,1014.58
2016-07-26T07:51:15.760Z,1014.51
2016-07-26T07:52:15.751Z,1014.51
2016-07-26T07:53:15.741Z,1014.54
2016-07-26T07:54:15.738Z,1014.52
2016-07-26T07:55:15.726Z,1014.54
2016-07-26T07:56:15.717Z,1014.53
2016-07-26T07:57:15.711Z,1014.51
2016-07-26T07:58:15.710Z,1014.52
2016-07-26T07:59:15.698Z,1014.49
2016-07-26T08:00:15.689Z,1014.48
2016-07-26T08:01:15.678Z,1014.5
2016-07-26T08:02:15.676Z,1014.53
2016-07-26T08:03:15.668Z,1014.52
2016-07-26T08:04:15.660Z,1014.56
2016-07-26T08:05:15.659Z,1014.53
2016-07-26T08:06:15.644Z,1014.52
2016-07-26T08:07:15.639Z,1014.54
2016-07-26T08:08:15.629Z,1014.56
2016-07-26T08:09:15.628Z,1014.57
2016-07-26T08:10:15.618Z,1014.58
2016-07-26T08:11:15.610Z,1014.6
2016-07-26T08:12:15.601Z,1014.58
2016-07-26T08:13:15.599Z,1014.57
2016-07-26T08:14:15.592Z,1014.56
2016-07-26T08:15:15.581Z,1014.52
2016-07-26T08:16:15.573Z,1014.57
2016-07-26T08:17:15.569Z,1014.62
2016-07-26T08:18:15.561Z,1014.6
2016-07-26T08:19:15.549Z,1014.64
2016-07-26T08:20:15.548Z,1014.64
2016-07-26T08:21:15.543Z,1014.63
2016-07-26T08:22:15.539Z,1014.66
2016-07-26T08:23:15.527Z,1014.67
2016-07-26T08:24:15.519Z,1014.7
2016-07-26T08:25:15.510Z,1014.76
2016-07-26T08:26:15.571Z,1014.74
2016-07-26T08:27:15.499Z,1014.71
2016-07-26T08:28:15.501Z,1014.71
2016-07-26T08:29:15.490Z,1014.73
2016-07-26T08:30:15.482Z,1014.75
2016-07-26T08:31:15.477Z,1014.7
2016-07-26T08:32:15.464Z,1014.73
2016-07-26T08:33:15.461Z,1014.73
2016-07-26T08:34:15.459Z,1014.81
2016-07-26T08:35:15.450Z,1014.76
2016-07-26T08:36:15.443Z,1014.73
2016-07-26T08:37:15.434Z,1014.76
2016-07-26T08:38:15.437Z,1014.79
2016-07-26T08:39:15.426Z,1014.79
2016-07-26T08:40:15.418Z,1014.87
2016-07-26T08:41:15.418Z,1014.97
2016-07-26T08:42:15.408Z,1014.93
2016-07-26T08:43:15.406Z,1014.92
2016-07-26T08:44:15.396Z,1014.93
2016-07-26T08:45:15.392Z,1014.96
2016-07-26T08:46:15.383Z,1014.98
2016-07-26T08:47:15.378Z,1014.91
2016-07-26T08:48:15.378Z,1014.87
2016-07-26T08:49:15.373Z,1014.8
2016-07-26T08:50:15.366Z,1014.83
2016-07-26T08:51:15.366Z,1014.85
2016-07-26T08:52:15.357Z,1014.93
2016-07-26T08:53:15.356Z,1014.9
2016-07-26T08:54:15.356Z,1014.9
2016-07-26T08:55:15.351Z,1014.9
2016-07-26T08:56:15.345Z,1014.94
2016-07-26T08:57:15.347Z,1014.85
2016-07-26T08:58:15.342Z,1014.85
2016-07-26T08:59:15.338Z,1014.85
2016-07-26T09:00:15.338Z,1014.84
2016-07-26T09:01:15.334Z,1014.85
2016-07-26T09:02:15.330Z,1014.83
2016-07-26T09:03:15.330Z,1014.83
2016-07-26T09:04:15.325Z,1014.79
2016-07-26T09:05:15.328Z,1014.81
2016-07-26T09:06:15.329Z,1014.76
2016-07-26T09:07:15.331Z,1014.81
2016-07-26T09:08:15.320Z,1014.75
2016-07-26T09:09:15.329Z,1014.83
2016-07-26T09:10:15.318Z,1014.73
2016-07-26T09:11:15.332Z,1014.83
2016-07-26T09:12:15.329Z,1014.75
2016-07-26T09:13:15.316Z,1014.73
2016-07-26T09:14:15.321Z,1014.81
2016-07-26T09:15:15.315Z,1014.82
2016-07-26T09:16:15.315Z,1014.8
2016-07-26T09:17:15.316Z,1014.81
2016-07-26T09:18:15.316Z,1014.76
2016-07-26T09:19:15.319Z,1014.72
2016-07-26T09:20:15.316Z,1014.78
2016-07-26T09:21:15.318Z,1014.76
2016-07-26T09:22:15.358Z,1014.73
2016-07-26T09:23:15.318Z,1014.72
2016-07-26T09:24:15.327Z,1014.76
2016-07-26T09:25:15.329Z,1014.79
2016-07-26T09:26:15.328Z,1014.78
2016-07-26T09:27:15.326Z,1014.79
2016-07-26T09:28:15.328Z,1014.8
2016-07-26T09:29:15.329Z,1014.8
2016-07-26T09:30:15.327Z,1014.81
2016-07-26T09:31:15.328Z,1014.72
2016-07-26T09:32:15.330Z,1014.6
2016-07-26T09:33:15.331Z,1014.72
2016-07-26T09:34:15.327Z,1014.73
2016-07-26T09:35:15.337Z,1014.73
2016-07-26T09:36:15.334Z,1014.64
2016-07-26T09:37:15.334Z,1014.74
2016-07-26T09:38:15.334Z,1014.7
2016-07-26T09:39:15.338Z,1014.7
2016-07-26T09:40:15.334Z,1014.71
2016-07-26T09:41:15.339Z,1014.69
2016-07-26T09:42:15.334Z,1014.67
2016-07-26T09:43:15.341Z,1014.66
2016-07-26T09:44:15.341Z,1014.64
2016-07-26T09:45:15.340Z,1014.65
2016-07-26T09:46:15.345Z,1014.69
2016-07-26T09:47:15.346Z,1014.7
2016-07-26T09:48:15.346Z,1014.7
2016-07-26T09:49:15.355Z,1014.65
2016-07-26T09:50:15.356Z,1014.56
2016-07-26T09:51:15.358Z,1014.61
2016-07-26T09:52:15.355Z,1014.59
2016-07-26T09:53:15.358Z,1014.62
2016-07-26T09:54:15.366Z,1014.59
2016-07-26T09:55:15.369Z,1014.6
2016-07-26T09:56:15.368Z,1014.61
2016-07-26T09:57:15.364Z,1014.63
2016-07-26T09:58:15.360Z,1014.63
2016-07-26T09:59:15.356Z,1014.61
2016-07-26T10:00:15.358Z,1014.68
2016-07-26T10:01:15.360Z,1014.63
2016-07-26T10:02:15.359Z,1014.59
2016-07-26T10:03:15.354Z,1014.64
2016-07-26T10:04:15.358Z,1014.6
2016-07-26T10:05:15.359Z,1014.59
2016-07-26T10:06:15.360Z,1014.59
2016-07-26T10:07:15.352Z,1014.58
2016-07-26T10:08:15.369Z,1014.61
2016-07-26T10:09:15.359Z,1014.57
2016-07-26T10:10:15.347Z,1014.58
2016-07-26T10:11:15.349Z,1014.58
2016-07-26T10:12:15.347Z,1014.58
2016-07-26T10:13:15.349Z,1014.6
2016-07-26T10:14:15.346Z,1014.61
2016-07-26T10:15:15.339Z,1014.61
2016-07-26T10:16:15.340Z,1014.6
2016-07-26T10:17:15.333Z,1014.56
2016-07-26T10:18:15.337Z,1014.59
2016-07-26T10:19:15.330Z,1014.58
2016-07-26T10:20:15.334Z,1014.57
2016-07-26T10:21:15.330Z,1014.57
2016-07-26T10:22:15.330Z,1014.54
2016-07-26T10:23:15.329Z,1014.59
2016-07-26T10:24:15.331Z,1014.62
2016-07-26T10:25:15.321Z,1014.61
2016-07-26T10:26:15.323Z,1014.61
2016-07-26T10:27:15.325Z,1014.58
2016-07-26T10:28:15.327Z,1014.58
2016-07-26T10:29:15.316Z,1014.54
2016-07-26T10:30:15.320Z,1014.55
2016-07-26T10:31:15.319Z,1014.55
2016-07-26T10:32:15.320Z,1014.55
2016-07-26T10:33:15.318Z,1014.5
2016-07-26T10:34:15.316Z,1014.51
2016-07-26T10:35:15.309Z,1014.52
2016-07-26T10:36:15.307Z,1014.46
2016-07-26T10:37:15.308Z,1014.47
2016-07-26T10:38:15.311Z,1014.45
2016-07-26T10:39:15.437Z,1014.44
2016-07-26T10:40:15.307Z,1014.46
2016-07-26T10:41:15.358Z,1014.5
2016-07-26T10:42:15.298Z,1014.45
2016-07-26T10:43:15.300Z,1014.46
2016-07-26T10:44:15.297Z,1014.46
2016-07-26T10:45:15.297Z,1014.46
2016-07-26T10:46:15.290Z,1014.47
2016-07-26T10:47:15.290Z,1014.49
2016-07-26T10:48:15.289Z,1014.45
2016-07-26T10:49:15.280Z,1014.44
2016-07-26T10:50:15.275Z,1014.4
2016-07-26T10:51:15.276Z,1014.37
2016-07-26T10:52:15.274Z,1014.36
2016-07-26T10:53:15.267Z,1014.38
2016-07-26T10:54:15.264Z,1014.4
2016-07-26T10:55:15.269Z,1014.39
2016-07-26T10:56:15.259Z,1014.4
2016-07-26T10:57:15.259Z,1014.38
2016-07-26T10:58:15.259Z,1014.43
2016-07-26T10:59:15.261Z,1014.41
2016-07-26T11:00:15.249Z,1014.4
2016-07-26T11:01:15.250Z,1014.39
2016-07-26T11:02:15.242Z,1014.41
2016-07-26T11:03:15.246Z,1014.41
2016-07-26T11:04:15.249Z,1014.33
2016-07-26T11:05:15.241Z,1014.36
2016-07-26T11:06:15.245Z,1014.35
2016-07-26T11:07:15.231Z,1014.34
2016-07-26T11:08:15.229Z,1014.34
2016-07-26T11:09:15.224Z,1014.28
2016-07-26T11:10:15.273Z,1014.3
2016-07-26T11:11:15.218Z,1014.24
2016-07-26T11:12:15.215Z,1014.31
2016-07-26T11:13:15.219Z,1014.25
2016-07-26T11:14:15.210Z,1014.26
2016-07-26T11:15:15.210Z,1014.24
2016-07-26T11:16:15.205Z,1014.24
2016-07-26T11:17:15.208Z,1014.25
2016-07-26T11:18:15.204Z,1014.23
2016-07-26T11:19:15.200Z,1014.21
2016-07-26T11:21:15.201Z,1014.25
2016-07-26T11:22:15.200Z,1014.18
2016-07-26T11:23:15.185Z,1014.16
2016-07-26T11:24:15.187Z,1014.18
2016-07-26T11:25:15.180Z,1014.14
2016-07-26T11:26:15.180Z,1014.11
2016-07-26T11:27:15.180Z,1014.09
2016-07-26T11:28:15.171Z,1014.12
2016-07-26T11:29:15.169Z,1014.1
2016-07-26T11:30:15.167Z,1014.09
2016-07-26T11:31:15.167Z,1014.11
2016-07-26T11:32:15.167Z,1014.13
2016-07-26T11:33:15.166Z,1014.11
2016-07-26T11:34:15.153Z,1014.12
2016-07-26T11:35:15.153Z,1014.08
2016-07-26T11:36:15.150Z,1014.13
2016-07-26T11:38:15.137Z,1014.01
2016-07-26T11:39:15.187Z,1013.99
2016-07-26T11:40:15.134Z,1013.98
2016-07-26T11:41:15.128Z,1014
2016-07-26T11:42:15.123Z,1013.99
2016-07-26T11:43:15.123Z,1013.96
2016-07-26T11:44:15.119Z,1014.01
2016-07-26T11:45:15.109Z,1014
2016-07-26T11:46:15.120Z,1014
2016-07-26T11:47:15.104Z,1014.03
2016-07-26T11:48:15.111Z,1014.01
2016-07-26T11:49:15.091Z,1013.98
2016-07-26T11:50:15.090Z,1013.99
2016-07-26T11:51:15.090Z,1013.99
2016-07-26T11:52:15.087Z,1014.02
2016-07-26T11:53:15.078Z,1014.01
2016-07-26T11:54:15.077Z,1013.98
2016-07-26T11:55:15.068Z,1014
2016-07-26T11:56:15.061Z,1013.99
2016-07-26T11:57:15.060Z,1014
2016-07-26T11:58:15.058Z,1014.02
2016-07-26T11:59:15.050Z,1013.98
2016-07-26T12:00:15.049Z,1013.98
2016-07-26T12:01:15.041Z,1013.97
2016-07-26T12:02:15.031Z,1013.95
2016-07-26T12:03:15.048Z,1013.9
2016-07-26T12:04:15.032Z,1013.9
2016-07-26T12:05:15.028Z,1013.9
2016-07-26T12:06:15.015Z,1013.87
2016-07-26T12:07:15.009Z,1013.9
2016-07-26T12:08:15.004Z,1013.9
2016-07-26T12:09:15.002Z,1013.93
2016-07-26T12:10:15.003Z,1013.91
2016-07-26T12:11:14.991Z,1013.93
2016-07-26T12:12:14.988Z,1013.87
2016-07-26T12:13:14.978Z,1013.85
2016-07-26T12:14:14.975Z,1013.84
2016-07-26T12:15:14.970Z,1013.83
2016-07-26T12:16:14.972Z,1013.84
2016-07-26T12:17:14.959Z,1013.84
2016-07-26T12:18:14.959Z,1013.83
2016-07-26T12:19:14.949Z,1013.82